Whitemouth, Canada
Current Conditions -  °F | °C
As of 5:00 AM on Thursday 27 Nov 2014 (Local Time) from CYWG Reporting Station
Ice Pellets Ice Pellets  
Wind Chill: -29°   Ceiling: Unl
Heat Index: -15°   Visibility: 15mi
Dew Point: -22°   Wind: 6mph
Humidity: 70%   Direction: 180°S
Pressure: 30.5"   Gusts: NA
Location:  49.95°N, 95.97°W
Report Text: CYWG 271100Z 18005KT 15SM IC SKC M26/M30 A3050 RMK SLP359
Loading
Personal Weather Stations






























Interactive Weather Map New forecast layout! Learn more

10-Day Weather Forecast

Advertisements
Track Severe Weather on mobile